Time;durP1;ratioP1;P1;durP2;ratioP2;P2;SDS_P1;SDS_P2;PMS_P1;PMS_P2;Temp;Humidity;BMP_temperature;BMP_pressure;BME280_temperature;BME280_humidity;BME280_pressure;Samples;Min_cycle;Max_cycle;Signal;HPM_P1;HPM_P2
2022/06/15 00:01:33;;;;;;;;;3.00;3.00;;;;;20.33;100.00;101115.38;4988018;28;45615;-74
2022/06/15 00:04:00;;;;;;;;;6.33;5.00;;;;;20.32;100.00;101118.44;4985255;28;45427;-74
2022/06/15 00:06:28;;;;;;;;;4.00;4.00;;;;;20.27;100.00;101113.66;4992525;28;45802;-72
2022/06/15 00:08:56;;;;;;;;;5.33;4.00;;;;;20.23;100.00;101112.50;5008104;28;47248;-72
2022/06/15 00:11:28;;;;;;;;;3.00;3.00;;;;;20.20;100.00;101105.53;4992378;28;45866;-74
2022/06/15 00:13:56;;;;;;;;;4.00;4.00;;;;;20.17;100.00;101111.63;4992452;28;45749;-73
2022/06/15 00:16:23;;;;;;;;;4.33;2.33;;;;;20.14;100.00;101109.38;4990428;28;45707;-74
2022/06/15 00:18:49;;;;;;;;;4.67;4.67;;;;;20.10;100.00;101105.41;4974642;28;45434;-72
2022/06/15 00:21:17;;;;;;;;;4.00;4.00;;;;;20.08;100.00;101118.78;4991957;28;45549;-73
2022/06/15 00:23:43;;;;;;;;;4.33;4.00;;;;;20.03;100.00;101111.22;4991379;28;45417;-74
2022/06/15 00:26:11;;;;;;;;;5.00;4.00;;;;;20.02;100.00;101111.47;4974285;28;45875;-73
2022/06/15 00:28:37;;;;;;;;;4.33;4.33;;;;;19.98;100.00;101108.38;4971641;28;47653;-72
2022/06/15 00:31:03;;;;;;;;;2.67;2.67;;;;;19.97;100.00;101105.84;4990819;28;46016;-73
2022/06/15 00:33:29;;;;;;;;;5.00;4.00;;;;;19.95;100.00;101113.63;4992850;28;45790;-74
2022/06/15 00:36:05;;;;;;;;;5.00;4.33;;;;;19.92;100.00;101115.84;4991907;28;45631;-74
2022/06/15 00:38:40;;;;;;;;;4.00;4.00;;;;;19.92;100.00;101123.34;4991801;28;46677;-73
2022/06/15 00:41:08;;;;;;;;;4.33;4.00;;;;;19.90;100.00;101120.00;4991939;28;45470;-73
2022/06/15 00:43:41;;;;;;;;;7.00;5.00;;;;;19.86;100.00;101121.59;4990598;28;45378;-74
2022/06/15 00:46:21;;;;;;;;;4.00;3.00;;;;;19.84;100.00;101121.88;4990871;28;45565;-73
2022/06/15 00:48:51;;;;;;;;;4.00;4.00;;;;;19.79;100.00;101126.53;4991431;28;45533;-73
2022/06/15 00:51:16;;;;;;;;;4.00;4.00;;;;;19.80;100.00;101123.50;4991090;28;45355;-71
2022/06/15 00:53:43;;;;;;;;;4.00;4.00;;;;;19.78;100.00;101117.34;4994673;28;45709;-72
2022/06/15 00:56:09;;;;;;;;;4.00;4.00;;;;;19.76;100.00;101120.38;4994748;28;45690;-72
2022/06/15 00:58:38;;;;;;;;;5.00;4.33;;;;;19.73;100.00;101120.03;5005379;28;48276;-71
2022/06/15 01:01:05;;;;;;;;;4.00;4.00;;;;;19.71;100.00;101125.03;4983379;28;45801;-73
2022/06/15 01:03:31;;;;;;;;;8.33;4.00;;;;;19.69;100.00;101128.06;4994268;28;45522;-74
2022/06/15 01:06:14;;;;;;;;;4.33;4.00;;;;;19.64;100.00;101124.38;4994065;28;45731;-72
2022/06/15 01:08:59;;;;;;;;;4.00;4.00;;;;;19.63;100.00;101122.72;4994848;28;45602;-71
2022/06/15 01:11:46;;;;;;;;;4.00;4.00;;;;;19.61;100.00;101133.25;4994356;28;45863;-71
2022/06/15 01:14:16;;;;;;;;;6.00;5.00;;;;;19.58;100.00;101123.47;4988146;28;45815;-72
2022/06/15 01:16:56;;;;;;;;;3.00;3.00;;;;;19.55;100.00;101127.66;4976713;28;46306;-71
2022/06/15 01:19:27;;;;;;;;;3.67;3.67;;;;;19.53;100.00;101124.25;4995333;28;46550;-72
2022/06/15 01:22:09;;;;;;;;;4.00;4.00;;;;;19.50;100.00;101124.78;4994440;28;45450;-71
2022/06/15 01:24:52;;;;;;;;;6.67;4.67;;;;;19.47;100.00;101124.47;4972097;28;45460;-72
2022/06/15 01:27:26;;;;;;;;;7.00;4.00;;;;;19.44;100.00;101134.16;4993278;28;47091;-72
2022/06/15 01:30:11;;;;;;;;;4.00;4.00;;;;;19.39;100.00;101123.81;4994468;28;45443;-71
2022/06/15 01:32:39;;;;;;;;;4.00;3.00;;;;;19.37;100.00;101119.63;4994336;28;45399;-71
2022/06/15 01:35:13;;;;;;;;;5.00;4.00;;;;;19.31;100.00;101115.09;4982198;28;45360;-73
2022/06/15 01:38:02;;;;;;;;;4.00;4.00;;;;;19.30;100.00;101111.47;4980697;28;45678;-72
2022/06/15 01:40:36;;;;;;;;;3.00;3.00;;;;;19.28;100.00;101116.47;4994072;28;46202;-71
2022/06/15 01:43:14;;;;;;;;;5.33;5.33;;;;;19.26;100.00;101128.94;4992909;28;45503;-72
2022/06/15 01:45:42;;;;;;;;;6.00;4.33;;;;;19.19;100.00;101113.28;4994006;28;45388;-72
2022/06/15 01:48:11;;;;;;;;;4.00;2.33;;;;;19.19;100.00;101127.19;4994333;28;45511;-73
2022/06/15 01:50:45;;;;;;;;;7.67;6.67;;;;;19.16;100.00;101121.28;5001042;28;45639;-71
2022/06/15 01:53:29;;;;;;;;;4.00;4.00;;;;;19.12;100.00;101123.75;4994262;28;45273;-72
2022/06/15 01:56:21;;;;;;;;;7.33;4.00;;;;;19.08;100.00;101107.84;4991285;28;45764;-72
2022/06/15 01:58:53;;;;;;;;;4.67;4.67;;;;;19.05;100.00;101117.53;4987842;28;45693;-71
2022/06/15 02:01:27;;;;;;;;;8.33;5.33;;;;;19.00;100.00;101109.97;4994204;28;45419;-70
2022/06/15 02:04:04;;;;;;;;;4.00;4.00;;;;;18.99;100.00;101118.56;4992281;28;45724;-72
2022/06/15 02:07:13;;;;;;;;;6.00;4.00;;;;;18.95;100.00;101107.13;4993083;28;45412;-71
2022/06/15 02:09:41;;;;;;;;;4.00;4.00;;;;;18.93;100.00;101109.31;4976553;28;45624;-71
2022/06/15 02:12:08;;;;;;;;;6.00;5.33;;;;;18.88;100.00;101101.75;4996391;28;45551;-73
2022/06/15 02:14:43;;;;;;;;;4.00;4.00;;;;;18.83;100.00;101098.88;4993031;28;45847;-72
2022/06/15 02:17:19;;;;;;;;;8.00;4.33;;;;;18.85;100.00;101096.69;4993684;28;45433;-71
2022/06/15 02:19:49;;;;;;;;;8.33;6.33;;;;;18.83;100.00;101098.00;4976437;28;45831;-73
2022/06/15 02:22:23;;;;;;;;;5.00;5.00;;;;;18.79;100.00;101100.47;4994121;28;45802;-71
2022/06/15 02:24:54;;;;;;;;;4.67;4.00;;;;;18.78;100.00;101101.56;4994945;28;45402;-73
2022/06/15 02:27:23;;;;;;;;;4.00;4.00;;;;;18.74;100.00;101100.38;4992771;28;45463;-72
2022/06/15 02:29:52;;;;;;;;;3.33;3.33;;;;;18.73;100.00;101092.28;5001892;28;45297;-72
2022/06/15 02:32:18;;;;;;;;;5.33;4.33;;;;;18.68;100.00;101093.91;4993869;28;46198;-72
2022/06/15 02:34:43;;;;;;;;;5.00;5.00;;;;;18.70;100.00;101093.66;4994056;28;45327;-72
2022/06/15 02:37:10;;;;;;;;;6.67;5.67;;;;;18.67;100.00;101091.41;4994039;28;45778;-72
2022/06/15 02:39:36;;;;;;;;;8.33;4.33;;;;;18.69;100.00;101103.09;4992559;28;45767;-73
2022/06/15 02:42:23;;;;;;;;;5.00;5.00;;;;;18.68;100.00;101098.63;4972925;28;47573;-72
2022/06/15 02:44:52;;;;;;;;;6.00;5.33;;;;;18.66;100.00;101103.59;4992761;28;45280;-74
2022/06/15 02:47:22;;;;;;;;;5.00;5.00;;;;;18.64;100.00;101091.91;4993829;28;45482;-72
2022/06/15 02:49:51;;;;;;;;;9.67;6.00;;;;;18.62;100.00;101097.72;4993103;28;45333;-71
2022/06/15 02:52:20;;;;;;;;;5.00;4.00;;;;;18.60;100.00;101093.50;4993160;28;45668;-72
2022/06/15 02:54:53;;;;;;;;;7.33;4.67;;;;;18.58;100.00;101090.97;4993760;28;45483;-74
2022/06/15 02:57:19;;;;;;;;;6.00;5.33;;;;;18.58;100.00;101098.47;4991466;28;45474;-71
2022/06/15 02:59:46;;;;;;;;;7.67;5.00;;;;;18.51;100.00;101091.16;4971144;28;45556;-72
2022/06/15 03:02:14;;;;;;;;;6.00;6.00;;;;;18.53;100.00;101100.09;4993765;28;46197;-71
2022/06/15 03:04:42;;;;;;;;;9.00;9.00;;;;;18.49;100.00;101092.50;4992728;28;45387;-71
2022/06/15 03:07:07;;;;;;;;;4.33;4.00;;;;;18.46;100.00;101079.97;4973849;28;45848;-71
2022/06/15 03:09:33;;;;;;;;;3.67;3.67;;;;;18.45;100.00;101080.22;4993445;28;45723;-72
2022/06/15 03:11:58;;;;;;;;;7.67;5.33;;;;;18.48;100.00;101088.03;4992484;28;45914;-72
2022/06/15 03:14:24;;;;;;;;;6.33;5.00;;;;;18.52;100.00;101092.84;4983940;28;45352;-72
2022/06/15 03:16:49;;;;;;;;;6.00;6.00;;;;;18.52;100.00;101098.38;4993037;28;45631;-73
2022/06/15 03:19:15;;;;;;;;;4.00;4.00;;;;;18.50;100.00;101106.16;4992506;28;45940;-72
2022/06/15 03:21:40;;;;;;;;;6.00;4.67;;;;;18.50;100.00;101108.91;4992593;28;45762;-72
2022/06/15 03:24:06;;;;;;;;;7.33;7.33;;;;;18.50;100.00;101105.28;4993010;28;45404;-70
2022/06/15 03:26:33;;;;;;;;;4.00;4.00;;;;;18.50;100.00;101108.06;4986597;28;45371;-71
2022/06/15 03:28:58;;;;;;;;;6.00;5.00;;;;;18.49;100.00;101112.78;4992287;28;45671;-72
2022/06/15 03:31:24;;;;;;;;;5.33;5.33;;;;;18.49;100.00;101104.44;4992261;28;45744;-71
2022/06/15 03:33:50;;;;;;;;;6.33;6.00;;;;;18.49;100.00;101103.63;4992205;28;45613;-73
2022/06/15 03:36:15;;;;;;;;;5.00;5.00;;;;;18.46;100.00;101098.56;4992925;28;45656;-70
2022/06/15 03:38:41;;;;;;;;;5.00;5.00;;;;;18.50;100.00;101108.91;4992161;28;45778;-72
2022/06/15 03:41:07;;;;;;;;;5.00;5.00;;;;;18.51;100.00;101106.97;4991838;28;46071;-70
2022/06/15 03:43:32;;;;;;;;;8.67;8.67;;;;;18.51;100.00;101106.97;4992787;28;45469;-73
2022/06/15 03:45:58;;;;;;;;;6.67;6.00;;;;;18.53;100.00;101110.31;4996759;28;45787;-72
2022/06/15 03:48:23;;;;;;;;;6.00;5.00;;;;;18.50;100.00;101106.16;5002078;28;46035;-72
2022/06/15 03:50:49;;;;;;;;;5.67;5.67;;;;;18.51;100.00;101105.03;4993445;28;45722;-72
2022/06/15 03:53:15;;;;;;;;;6.00;4.67;;;;;18.53;100.00;101107.56;5006793;28;45751;-72
2022/06/15 03:55:43;;;;;;;;;6.00;5.33;;;;;18.58;100.00;101104.88;5000422;28;45489;-71
2022/06/15 03:58:12;;;;;;;;;6.33;5.33;;;;;18.62;100.00;101096.84;4988625;28;45932;-72
2022/06/15 04:00:37;;;;;;;;;7.67;6.33;;;;;18.68;100.00;101096.69;5000637;28;45838;-72
2022/06/15 04:03:03;;;;;;;;;5.33;5.00;;;;;18.72;100.00;101097.03;5004989;28;45758;-73
2022/06/15 04:05:42;;;;;;;;;5.00;5.00;;;;;18.83;100.00;101098.88;5005227;28;45363;-72
2022/06/15 04:11:00;;;;;;;;;9.33;7.33;;;;;18.92;100.00;101112.34;4982232;28;45814;-70
2022/06/15 04:13:26;;;;;;;;;7.67;7.33;;;;;18.94;100.00;101099.88;5003639;28;45318;-72
2022/06/15 04:15:52;;;;;;;;;8.00;8.00;;;;;19.00;100.00;101103.56;4992872;28;45653;-72
2022/06/15 04:18:17;;;;;;;;;8.00;7.33;;;;;19.02;100.00;101099.41;4995991;28;45789;-73
2022/06/15 04:20:43;;;;;;;;;8.33;8.33;;;;;19.04;100.00;101082.47;5002399;28;46769;-72
2022/06/15 04:23:13;;;;;;;;;9.33;7.00;;;;;19.12;100.00;101097.91;4999985;28;45721;-71
2022/06/15 04:25:46;;;;;;;;;7.33;5.00;;;;;19.15;100.00;101101.00;4992876;28;45828;-71
2022/06/15 04:28:13;;;;;;;;;6.00;4.67;;;;;19.18;100.00;101099.66;4994691;28;45914;-74
2022/06/15 04:30:39;;;;;;;;;6.33;5.33;;;;;19.49;100.00;101108.34;4994376;28;47043;-75
2022/06/15 04:33:05;;;;;;;;;7.00;7.00;;;;;19.99;100.00;101086.97;5004505;28;45663;-73
2022/06/15 04:35:31;;;;;;;;;6.00;5.00;;;;;20.55;100.00;101094.94;4995863;28;45315;-73
2022/06/15 04:37:57;;;;;;;;;6.00;4.00;;;;;21.12;100.00;101098.94;4996899;28;45616;-72
2022/06/15 04:40:22;;;;;;;;;5.50;5.50;;;;;21.58;100.00;101096.38;4994456;28;46646;-71
2022/06/15 04:42:48;;;;;;;;;8.00;5.00;;;;;22.08;100.00;101079.13;4973559;28;45632;-72
2022/06/15 04:45:15;;;;;;;;;6.00;6.00;;;;;22.72;100.00;101095.38;5000496;28;45546;-72
2022/06/15 04:47:41;;;;;;;;;11.00;6.00;;;;;23.26;100.00;101087.38;5009734;28;45612;-74
2022/06/15 04:50:08;;;;;;;;;5.67;5.67;;;;;23.88;100.00;101096.34;5010164;28;46203;-72
2022/06/15 04:52:34;;;;;;;;;7.67;4.67;;;;;24.50;100.00;101096.69;5009070;28;45682;-74
2022/06/15 04:55:00;;;;;;;;;10.33;6.33;;;;;25.07;100.00;101098.94;5009866;28;45453;-73
2022/06/15 04:57:25;;;;;;;;;7.67;5.33;;;;;25.62;100.00;101090.13;5009540;28;46069;-75
2022/06/15 04:59:51;;;;;;;;;6.00;6.00;;;;;26.19;100.00;101101.38;5010558;28;45684;-73
2022/06/15 05:02:16;;;;;;;;;7.00;6.00;;;;;26.75;98.98;101101.56;5011185;28;45867;-74
2022/06/15 05:04:42;;;;;;;;;8.67;6.67;;;;;27.28;96.09;101100.25;5013070;28;46917;-74
2022/06/15 05:07:08;;;;;;;;;9.33;8.00;;;;;27.78;92.27;101103.13;5012176;28;46142;-73
2022/06/15 05:09:34;;;;;;;;;7.67;7.33;;;;;28.22;88.86;101095.09;5012247;28;45647;-73
2022/06/15 05:12:00;;;;;;;;;8.00;7.67;;;;;28.68;85.12;101088.28;5012301;28;45452;-73
2022/06/15 05:14:25;;;;;;;;;7.00;6.00;;;;;29.17;81.31;101093.13;5012987;28;46161;-78
2022/06/15 05:16:51;;;;;;;;;8.00;8.00;;;;;29.50;79.10;101092.75;5000533;28;46522;-75
2022/06/15 05:19:16;;;;;;;;;6.33;6.00;;;;;29.82;78.28;101096.31;5010839;28;45693;-75
2022/06/15 05:21:44;;;;;;;;;8.67;6.33;;;;;30.13;75.49;101092.50;5023072;28;45667;-78
2022/06/15 05:24:10;;;;;;;;;8.33;7.00;;;;;30.26;73.93;101094.31;5016643;28;45399;-76
2022/06/15 05:26:36;;;;;;;;;7.00;6.33;;;;;30.51;73.09;101101.13;5015047;28;45810;-77
2022/06/15 05:29:02;;;;;;;;;6.00;6.00;;;;;30.84;72.10;101097.72;5012685;28;47068;-77
2022/06/15 05:31:28;;;;;;;;;6.00;5.00;;;;;31.19;69.26;101099.59;5014199;28;45520;-82
2022/06/15 05:33:56;;;;;;;;;8.33;5.00;;;;;31.13;67.51;101096.94;5000882;28;45507;-80
2022/06/15 05:36:26;;;;;;;;;7.00;6.00;;;;;31.33;66.56;101095.34;4990856;28;46941;-81
2022/06/15 05:38:51;;;;;;;;;5.67;5.00;;;;;31.44;65.54;101098.59;4993143;28;47245;-80
2022/06/15 05:41:17;;;;;;;;;5.00;5.00;;;;;31.59;64.83;101105.72;5025837;28;45538;-79
2022/06/15 05:46:15;;;;;;;;;5.00;5.00;;;;;32.15;61.32;101111.13;5009443;28;45465;-79
2022/06/15 05:48:40;;;;;;;;;9.00;6.00;;;;;32.09;61.16;101092.63;5012518;28;45989;-81
2022/06/15 05:51:06;;;;;;;;;8.00;5.00;;;;;32.52;60.08;101099.94;5009245;28;45371;-81
2022/06/15 05:53:31;;;;;;;;;6.33;6.33;;;;;33.01;57.69;101101.22;4993573;28;45997;-80
2022/06/15 05:55:57;;;;;;;;;5.33;5.00;;;;;33.48;55.16;101097.13;4993051;28;45380;-76
2022/06/15 05:58:23;;;;;;;;;9.67;5.33;;;;;33.91;54.41;101095.59;4974951;28;47042;-78
2022/06/15 06:00:48;;;;;;;;;8.33;6.00;;;;;34.29;50.70;101108.56;4972078;28;45556;-78
2022/06/15 06:03:16;;;;;;;;;6.00;4.00;;;;;34.48;48.69;101094.47;4993860;28;45383;-77
2022/06/15 06:05:41;;;;;;;;;5.00;5.00;;;;;34.83;48.16;101092.97;4992118;28;45789;-76
2022/06/15 06:08:07;;;;;;;;;5.67;5.67;;;;;35.39;45.67;101108.22;4993777;28;45811;-76
2022/06/15 06:10:32;;;;;;;;;13.33;7.67;;;;;35.87;44.36;101106.09;4994659;28;45529;-79
2022/06/15 06:12:58;;;;;;;;;9.33;7.33;;;;;36.33;42.33;101103.41;4977806;28;45471;-76
2022/06/15 06:15:23;;;;;;;;;9.67;7.00;;;;;36.55;40.25;101092.41;4977229;28;45992;-76
2022/06/15 06:17:49;;;;;;;;;4.67;4.00;;;;;36.88;39.41;101099.59;4989756;28;46464;-77
2022/06/15 06:20:17;;;;;;;;;8.67;7.67;;;;;36.83;38.60;101097.03;4994746;28;45777;-77
2022/06/15 06:22:43;;;;;;;;;7.33;6.33;;;;;36.78;38.79;101092.44;4986807;28;45826;-76
2022/06/15 06:25:10;;;;;;;;;6.00;6.00;;;;;37.02;38.50;101090.41;4988588;28;45799;-77
2022/06/15 06:27:35;;;;;;;;;6.00;4.00;;;;;37.27;37.40;101090.84;4990525;28;45922;-75
2022/06/15 06:30:01;;;;;;;;;7.00;6.33;;;;;37.54;36.65;101088.81;4980396;28;45315;-76
2022/06/15 06:32:26;;;;;;;;;8.33;7.00;;;;;37.84;35.43;101092.94;4990816;28;45574;-75
2022/06/15 06:34:55;;;;;;;;;7.67;5.00;;;;;38.01;34.73;101100.09;4994556;28;45402;-75
2022/06/15 06:37:21;;;;;;;;;8.33;5.67;;;;;37.97;34.10;101100.06;4998019;28;45429;-77
2022/06/15 06:39:55;;;;;;;;;6.33;6.33;;;;;37.84;34.53;101093.75;4992759;28;45687;-76
2022/06/15 06:42:21;;;;;;;;;5.67;5.67;;;;;37.86;34.05;101104.81;4994467;28;45295;-75
2022/06/15 06:44:46;;;;;;;;;6.33;6.33;;;;;38.10;32.93;101104.31;4993259;28;45877;-75
2022/06/15 06:47:12;;;;;;;;;5.67;5.67;;;;;38.35;33.27;101105.88;4987967;28;48150;-77
2022/06/15 06:49:37;;;;;;;;;7.00;7.00;;;;;38.85;32.32;101107.25;4994445;28;45439;-76
2022/06/15 06:52:04;;;;;;;;;6.00;4.67;;;;;38.15;33.60;101103.16;4993129;28;45241;-72
2022/06/15 06:54:31;;;;;;;;;6.00;6.00;;;;;37.61;33.41;101094.63;4993525;28;45500;-72
2022/06/15 06:56:57;;;;;;;;;6.33;5.33;;;;;36.99;34.07;101097.72;4993695;28;45520;-73
2022/06/15 06:59:23;;;;;;;;;8.00;8.00;;;;;36.25;35.76;101098.75;4994646;28;45423;-73
2022/06/15 07:01:48;;;;;;;;;9.00;7.00;;;;;35.58;37.62;101094.00;4991720;28;45891;-72
2022/06/15 07:04:15;;;;;;;;;2.67;2.67;;;;;35.03;40.33;101108.13;4988825;28;46108;-75
2022/06/15 07:06:41;;;;;;;;;6.67;5.33;;;;;34.44;42.12;101104.09;4992722;28;45703;-72
2022/06/15 07:09:07;;;;;;;;;5.67;5.67;;;;;33.92;43.58;101100.97;4993022;28;45736;-71
2022/06/15 07:11:33;;;;;;;;;10.00;5.67;;;;;33.64;45.27;101111.41;4992989;28;45663;-71
2022/06/15 07:13:59;;;;;;;;;10.33;6.00;;;;;33.64;46.67;101105.72;4993641;28;45606;-72
2022/06/15 07:16:25;;;;;;;;;5.33;5.33;;;;;34.15;45.55;101114.66;4993061;28;46363;-73
2022/06/15 07:18:52;;;;;;;;;7.33;6.33;;;;;35.24;43.30;101107.88;4992897;28;45303;-72
2022/06/15 07:21:21;;;;;;;;;5.67;5.33;;;;;36.00;40.47;101110.47;4993557;28;45505;-74
2022/06/15 07:23:49;;;;;;;;;7.00;7.00;;;;;37.16;37.17;101109.84;5002195;28;45517;-71
2022/06/15 07:26:19;;;;;;;;;8.00;6.00;;;;;38.44;34.75;101112.09;4992957;28;45801;-72
2022/06/15 07:28:44;;;;;;;;;5.67;4.00;;;;;39.71;31.43;101120.63;4992193;28;45729;-71
2022/06/15 07:31:44;;;;;;;;;5.67;4.00;;;;;40.90;29.45;101116.19;4975489;28;45364;-72
2022/06/15 07:34:10;;;;;;;;;5.00;5.00;;;;;41.69;27.59;101112.41;4989113;28;45344;-72
2022/06/15 07:36:37;;;;;;;;;11.00;7.67;;;;;42.29;26.57;101124.16;4991127;28;45386;-71
2022/06/15 07:39:04;;;;;;;;;6.67;5.67;;;;;43.21;24.81;101118.22;4971937;28;45685;-73
2022/06/15 07:41:30;;;;;;;;;6.00;5.00;;;;;44.07;23.86;101120.16;4992848;28;45404;-71
2022/06/15 07:43:56;;;;;;;;;9.33;6.00;;;;;44.99;22.89;101109.78;4991590;28;45862;-72
2022/06/15 07:46:22;;;;;;;;;8.00;6.00;;;;;45.80;22.23;101116.63;4991470;28;45920;-73
2022/06/15 07:51:31;;;;;;;;;7.67;5.00;;;;;47.56;19.85;101111.59;4992582;28;45471;-74
2022/06/15 07:53:58;;;;;;;;;5.00;5.00;;;;;48.28;19.15;101108.69;4992317;28;45945;-73
2022/06/15 07:56:25;;;;;;;;;5.67;4.67;;;;;48.68;18.12;101114.09;4987841;28;45443;-73
2022/06/15 07:58:51;;;;;;;;;5.67;5.67;;;;;48.94;17.90;101118.63;4991007;28;45593;-75
2022/06/15 08:01:17;;;;;;;;;9.00;7.00;;;;;49.41;18.19;101101.63;4977575;28;45852;-74
2022/06/15 08:03:43;;;;;;;;;6.67;3.33;;;;;49.90;16.59;101104.00;4993587;28;45728;-77
2022/06/15 08:06:08;;;;;;;;;6.00;5.33;;;;;50.25;17.03;101103.06;5001076;28;45778;-80
2022/06/15 08:08:34;;;;;;;;;4.00;4.00;;;;;50.52;16.98;101103.16;5004334;28;45404;-78
2022/06/15 08:10:59;;;;;;;;;6.00;5.00;;;;;50.88;15.86;101100.88;4998723;28;45323;-78
2022/06/15 08:13:25;;;;;;;;;6.67;4.00;;;;;51.06;15.62;101103.03;4996113;28;45395;-78
2022/06/15 08:15:52;;;;;;;;;5.00;5.00;;;;;50.95;15.36;101096.84;4995667;28;45371;-77
2022/06/15 08:18:23;;;;;;;;;3.33;3.33;;;;;50.64;15.93;101091.91;5006286;28;45698;-76
2022/06/15 08:20:58;;;;;;;;;4.33;3.33;;;;;50.40;15.90;101098.25;5000362;28;46325;-78
2022/06/15 08:23:27;;;;;;;;;8.67;5.33;;;;;49.44;15.98;101101.47;4993589;28;45748;-76
2022/06/15 08:25:58;;;;;;;;;5.00;2.67;;;;;48.66;16.34;101102.91;4992459;28;46760;-77
2022/06/15 08:28:29;;;;;;;;;4.67;4.67;;;;;47.89;17.10;101094.06;4994857;28;45510;-78
2022/06/15 08:30:55;;;;;;;;;4.67;3.67;;;;;46.61;18.35;101089.16;4992786;28;45752;-76
2022/06/15 08:33:22;;;;;;;;;3.33;3.00;;;;;45.46;18.69;101086.63;4990198;28;45558;-78
2022/06/15 08:35:47;;;;;;;;;3.67;3.67;;;;;44.64;19.63;101088.84;4992116;28;45604;-78
2022/06/15 08:38:18;;;;;;;;;5.33;5.33;;;;;44.05;20.19;101093.78;4996055;28;45571;-79
2022/06/15 08:40:53;;;;;;;;;8.00;7.00;;;;;43.35;20.50;101097.84;4993656;28;45328;-78
2022/06/15 08:43:41;;;;;;;;;6.33;5.33;;;;;42.71;21.54;101090.56;5001342;28;45325;-83
2022/06/15 08:46:42;;;;;;;;;5.33;5.33;;;;;41.80;22.48;101089.34;4988527;28;48133;-77
2022/06/15 08:49:18;;;;;;;;;7.00;6.00;;;;;41.21;22.99;101079.16;4943934;28;45558;-78
2022/06/15 08:51:48;;;;;;;;;7.33;7.33;;;;;40.65;23.34;101090.25;4977998;28;45388;-80
2022/06/15 08:54:38;;;;;;;;;4.33;4.33;;;;;39.98;23.85;101088.78;4976107;28;45444;-80
2022/06/15 08:57:03;;;;;;;;;6.00;5.00;;;;;39.76;25.03;101087.84;4977468;28;45704;-82
2022/06/15 08:59:47;;;;;;;;;5.00;4.33;;;;;40.31;24.49;101092.59;4980088;28;45378;-79
2022/06/15 09:02:40;;;;;;;;;6.00;4.67;;;;;41.49;23.33;101086.16;4972842;28;45739;-77
2022/06/15 09:05:14;;;;;;;;;5.67;4.67;;;;;42.79;21.77;101082.66;4974565;28;45792;-77
2022/06/15 09:07:56;;;;;;;;;4.33;3.33;;;;;43.44;21.45;101082.94;4987614;28;46638;-80
2022/06/15 09:10:48;;;;;;;;;5.00;3.67;;;;;44.26;20.70;101080.31;4974284;28;45699;-79
2022/06/15 09:13:24;;;;;;;;;6.00;5.00;;;;;44.90;20.30;101077.66;4979267;28;45355;-78
2022/06/15 09:16:08;;;;;;;;;4.00;3.33;;;;;45.62;18.99;101076.41;4994538;28;45709;-81
2022/06/15 09:18:41;;;;;;;;;5.67;4.00;;;;;46.15;19.28;101080.22;4974821;28;45930;-79
2022/06/15 09:21:16;;;;;;;;;3.33;3.33;;;;;46.12;19.00;101081.13;4975197;28;45692;-75
2022/06/15 09:23:49;;;;;;;;;6.67;3.33;;;;;45.35;19.30;101076.47;4975273;28;45441;-76
2022/06/15 09:26:23;;;;;;;;;4.33;4.33;;;;;45.23;19.24;101084.56;4974654;28;45390;-76
2022/06/15 09:28:59;;;;;;;;;6.67;4.33;;;;;45.75;18.74;101083.13;4975361;28;46618;-76
2022/06/15 09:31:34;;;;;;;;;8.00;4.00;;;;;46.41;18.61;101085.47;4975360;28;45456;-76
2022/06/15 09:34:03;;;;;;;;;3.67;3.00;;;;;46.96;18.15;101088.72;4970020;28;45784;-73
2022/06/15 09:36:35;;;;;;;;;6.67;5.67;;;;;47.51;17.56;101092.63;4972548;28;45801;-73
2022/06/15 09:39:02;;;;;;;;;3.00;3.00;;;;;48.15;17.03;101086.25;5006773;28;47560;-77
2022/06/15 09:41:36;;;;;;;;;4.00;4.00;;;;;48.63;16.45;101088.47;4968946;28;45408;-79
2022/06/15 09:44:17;;;;;;;;;4.00;4.00;;;;;48.93;16.52;101079.13;4977721;28;45406;-79
2022/06/15 09:46:42;;;;;;;;;3.33;3.33;;;;;49.11;15.70;101087.22;4989404;28;45412;-75
2022/06/15 09:49:31;;;;;;;;;5.00;4.00;;;;;49.05;16.11;101076.63;4990025;28;45562;-80
2022/06/15 09:51:59;;;;;;;;;5.33;3.00;;;;;49.23;15.71;101068.13;4993452;28;45505;-79
2022/06/15 09:54:36;;;;;;;;;6.00;4.00;;;;;49.56;15.93;101078.59;4987766;28;45627;-79
2022/06/15 09:57:02;;;;;;;;;6.33;4.00;;;;;49.86;15.26;101068.28;4993616;28;45822;-79
2022/06/15 09:59:33;;;;;;;;;5.00;5.00;;;;;50.18;15.70;101077.88;4997986;28;46935;-81
2022/06/15 10:02:03;;;;;;;;;3.33;3.33;;;;;50.50;15.67;101055.31;4997633;28;45914;-83
2022/06/15 10:04:31;;;;;;;;;5.33;4.33;;;;;50.73;14.39;101080.25;4997018;28;45256;-79
2022/06/15 10:07:11;;;;;;;;;3.00;3.00;;;;;50.59;14.46;101072.88;4997652;28;46025;-78
2022/06/15 10:09:40;;;;;;;;;4.00;4.00;;;;;50.87;15.09;101065.00;4988651;28;45471;-80
2022/06/15 10:13:02;;;;;;;;;4.67;4.67;;;;;51.22;14.81;101070.59;4996016;28;45442;-81
2022/06/15 10:15:31;;;;;;;;;4.00;4.00;;;;;51.88;14.52;101069.25;4995008;28;45786;-80
2022/06/15 10:18:02;;;;;;;;;5.00;3.33;;;;;52.10;14.11;101070.34;4992983;28;45814;-79
2022/06/15 10:20:36;;;;;;;;;5.00;5.00;;;;;52.35;14.48;101075.78;4993042;28;45410;-79
2022/06/15 10:23:06;;;;;;;;;4.33;4.33;;;;;52.46;13.43;101081.09;4994055;28;45324;-80
2022/06/15 10:25:36;;;;;;;;;4.67;3.67;;;;;52.41;13.09;101079.66;4990418;28;45866;-80
2022/06/15 10:28:33;;;;;;;;;4.33;3.33;;;;;52.36;13.30;101088.31;4995091;28;45461;-77
2022/06/15 10:31:07;;;;;;;;;4.00;4.00;;;;;51.96;13.19;101077.69;4988219;28;45882;-78
2022/06/15 10:33:46;;;;;;;;;5.00;4.00;;;;;51.68;13.48;101077.75;4996007;28;46609;-78
2022/06/15 10:36:21;;;;;;;;;5.00;4.00;;;;;52.01;13.43;101079.97;4978274;28;45751;-78
2022/06/15 10:38:52;;;;;;;;;5.00;5.00;;;;;51.94;13.94;101063.56;5001810;28;45959;-79
2022/06/15 10:44:02;;;;;;;;;4.33;4.00;;;;;52.17;14.20;101075.84;4991203;28;45434;-81
2022/06/15 10:46:50;;;;;;;;;4.00;4.00;;;;;52.26;13.78;101067.81;4995855;28;45425;-80
2022/06/15 10:49:16;;;;;;;;;5.67;4.67;;;;;52.23;13.32;101073.88;4986017;28;45499;-77
2022/06/15 10:51:42;;;;;;;;;7.33;5.00;;;;;51.79;14.09;101074.31;4991777;28;46588;-81
2022/06/15 10:54:31;;;;;;;;;5.67;4.00;;;;;51.38;14.22;101062.81;4993236;28;45476;-78
2022/06/15 11:03:10;;;;;;;;;4.00;4.00;;;;;50.76;15.19;101063.88;4993472;28;45924;-78
2022/06/15 11:05:35;;;;;;;;;6.67;6.67;;;;;50.57;14.86;101060.84;4988150;28;45830;-77
2022/06/15 11:08:14;;;;;;;;;5.00;5.00;;;;;50.18;14.78;101072.03;4991967;28;45810;-79
2022/06/15 11:10:46;;;;;;;;;5.67;5.67;;;;;49.58;15.28;101073.13;4996136;28;45472;-77
2022/06/15 11:13:34;;;;;;;;;4.00;4.00;;;;;48.90;15.89;101071.34;4976648;28;47592;-79
2022/06/15 11:19:09;;;;;;;;;4.33;4.33;;;;;47.61;16.62;101066.63;4992210;28;45914;-79
2022/06/15 11:21:45;;;;;;;;;5.33;5.33;;;;;46.64;17.33;101070.03;4988174;28;45744;-78
2022/06/15 11:24:35;;;;;;;;;9.00;6.67;;;;;45.66;18.15;101062.63;4986864;28;45541;-79
2022/06/15 11:27:10;;;;;;;;;4.67;4.67;;;;;44.74;19.03;101058.13;4974280;28;45329;-78
2022/06/15 11:29:44;;;;;;;;;7.00;7.00;;;;;43.90;20.12;101061.38;4991869;28;45523;-79
2022/06/15 11:32:37;;;;;;;;;7.00;7.00;;;;;42.96;20.29;101058.59;4990433;28;45389;-78
2022/06/15 11:35:12;;;;;;;;;6.33;6.33;;;;;42.20;21.84;101061.19;5005850;28;47772;-79
2022/06/15 11:38:02;;;;;;;;;5.33;5.33;;;;;41.38;22.98;101051.63;4989390;28;45418;-79
2022/06/15 11:41:01;;;;;;;;;9.00;7.33;;;;;40.46;24.62;101064.75;4995320;28;45601;-79
2022/06/15 11:43:26;;;;;;;;;9.00;8.00;;;;;39.59;24.61;101063.56;4983189;28;45363;-80
2022/06/15 11:46:32;;;;;;;;;7.00;7.00;;;;;38.84;25.62;101053.97;4980033;28;45438;-80
2022/06/15 11:49:06;;;;;;;;;8.33;6.67;;;;;38.06;25.87;101054.75;4960588;28;45360;-79
2022/06/15 11:51:47;;;;;;;;;6.33;6.33;;;;;37.33;26.26;101057.84;4977952;28;45337;-81
2022/06/15 11:54:40;;;;;;;;;7.00;7.00;;;;;36.66;27.09;101062.00;4977525;28;45039;-78
2022/06/15 11:57:11;;;;;;;;;8.33;8.33;;;;;36.14;28.56;101054.84;4973259;28;45425;-79
2022/06/15 11:59:53;;;;;;;;;7.00;7.00;;;;;35.73;30.42;101066.63;4977228;28;45583;-79